sensor_id;sensor_type;location;lat;lon;timestamp;P1;durP1;ratioP1;P2;durP2;ratioP2
15608;SDS011;28705;45.642;13.758;2022-07-01T00:02:06;4.60;;;4.07;;
15608;SDS011;28705;45.642;13.758;2022-07-01T00:04:33;6.88;;;4.85;;
15608;SDS011;28705;45.642;13.758;2022-07-01T00:07:00;6.28;;;4.63;;
15608;SDS011;28705;45.642;13.758;2022-07-01T00:09:27;6.15;;;4.72;;
15608;SDS011;28705;45.642;13.758;2022-07-01T00:11:56;8.32;;;4.72;;
15608;SDS011;28705;45.642;13.758;2022-07-01T00:14:22;9.73;;;5.47;;
15608;SDS011;28705;45.642;13.758;2022-07-01T00:16:49;7.55;;;4.50;;
15608;SDS011;28705;45.642;13.758;2022-07-01T00:19:17;7.07;;;4.70;;
15608;SDS011;28705;45.642;13.758;2022-07-01T00:21:44;10.10;;;5.55;;
15608;SDS011;28705;45.642;13.758;2022-07-01T00:24:11;10.80;;;5.13;;
15608;SDS011;28705;45.642;13.758;2022-07-01T00:26:38;6.85;;;4.60;;
15608;SDS011;28705;45.642;13.758;2022-07-01T00:29:06;8.20;;;4.72;;
15608;SDS011;28705;45.642;13.758;2022-07-01T00:31:33;10.13;;;5.22;;
15608;SDS011;28705;45.642;13.758;2022-07-01T00:34:01;6.72;;;4.75;;
15608;SDS011;28705;45.642;13.758;2022-07-01T00:36:28;8.68;;;5.47;;
15608;SDS011;28705;45.642;13.758;2022-07-01T00:38:55;10.85;;;5.10;;
15608;SDS011;28705;45.642;13.758;2022-07-01T00:41:23;11.00;;;5.22;;
15608;SDS011;28705;45.642;13.758;2022-07-01T00:43:50;12.60;;;4.90;;
15608;SDS011;28705;45.642;13.758;2022-07-01T00:46:19;8.68;;;5.03;;
15608;SDS011;28705;45.642;13.758;2022-07-01T00:48:46;9.15;;;5.47;;
15608;SDS011;28705;45.642;13.758;2022-07-01T00:51:14;8.95;;;5.40;;
15608;SDS011;28705;45.642;13.758;2022-07-01T00:53:41;7.80;;;4.97;;
15608;SDS011;28705;45.642;13.758;2022-07-01T00:56:07;8.32;;;4.80;;
15608;SDS011;28705;45.642;13.758;2022-07-01T00:58:35;7.22;;;5.22;;
15608;SDS011;28705;45.642;13.758;2022-07-01T01:01:02;6.75;;;4.50;;
15608;SDS011;28705;45.642;13.758;2022-07-01T01:03:30;5.53;;;4.30;;
15608;SDS011;28705;45.642;13.758;2022-07-01T01:05:58;6.57;;;4.32;;
15608;SDS011;28705;45.642;13.758;2022-07-01T01:08:25;7.32;;;4.53;;
15608;SDS011;28705;45.642;13.758;2022-07-01T01:10:52;4.80;;;4.30;;
15608;SDS011;28705;45.642;13.758;2022-07-01T01:13:19;6.97;;;4.70;;
15608;SDS011;28705;45.642;13.758;2022-07-01T01:15:46;7.82;;;4.88;;
15608;SDS011;28705;45.642;13.758;2022-07-01T01:18:13;7.47;;;4.00;;
15608;SDS011;28705;45.642;13.758;2022-07-01T01:20:42;5.35;;;4.60;;
15608;SDS011;28705;45.642;13.758;2022-07-01T01:23:09;5.82;;;4.00;;
15608;SDS011;28705;45.642;13.758;2022-07-01T01:25:36;7.60;;;4.25;;
15608;SDS011;28705;45.642;13.758;2022-07-01T01:28:03;6.65;;;4.85;;
15608;SDS011;28705;45.642;13.758;2022-07-01T01:30:30;6.03;;;4.35;;
15608;SDS011;28705;45.642;13.758;2022-07-01T01:32:57;5.50;;;4.18;;
15608;SDS011;28705;45.642;13.758;2022-07-01T01:35:24;6.38;;;4.63;;
15608;SDS011;28705;45.642;13.758;2022-07-01T01:37:53;4.38;;;3.95;;
15608;SDS011;28705;45.642;13.758;2022-07-01T01:40:20;4.53;;;3.88;;
15608;SDS011;28705;45.642;13.758;2022-07-01T01:42:46;5.57;;;3.97;;
15608;SDS011;28705;45.642;13.758;2022-07-01T01:45:13;5.15;;;4.38;;
15608;SDS011;28705;45.642;13.758;2022-07-01T01:47:40;6.30;;;4.20;;
15608;SDS011;28705;45.642;13.758;2022-07-01T01:50:08;6.55;;;4.95;;
15608;SDS011;28705;45.642;13.758;2022-07-01T01:52:37;5.18;;;3.97;;
15608;SDS011;28705;45.642;13.758;2022-07-01T01:55:09;5.22;;;4.28;;
15608;SDS011;28705;45.642;13.758;2022-07-01T01:57:36;7.60;;;3.85;;
15608;SDS011;28705;45.642;13.758;2022-07-01T02:00:04;5.70;;;4.25;;
15608;SDS011;28705;45.642;13.758;2022-07-01T02:02:33;4.90;;;4.38;;
15608;SDS011;28705;45.642;13.758;2022-07-01T02:05:01;5.55;;;3.83;;
15608;SDS011;28705;45.642;13.758;2022-07-01T02:07:28;5.57;;;4.43;;
15608;SDS011;28705;45.642;13.758;2022-07-01T02:09:55;5.20;;;3.72;;
15608;SDS011;28705;45.642;13.758;2022-07-01T02:12:24;6.15;;;4.20;;
15608;SDS011;28705;45.642;13.758;2022-07-01T02:14:51;4.63;;;3.75;;
15608;SDS011;28705;45.642;13.758;2022-07-01T02:17:17;4.95;;;3.90;;
15608;SDS011;28705;45.642;13.758;2022-07-01T02:19:44;7.50;;;3.90;;
15608;SDS011;28705;45.642;13.758;2022-07-01T02:22:11;5.45;;;4.25;;
15608;SDS011;28705;45.642;13.758;2022-07-01T02:24:38;5.03;;;3.83;;
15608;SDS011;28705;45.642;13.758;2022-07-01T02:27:05;6.40;;;4.22;;
15608;SDS011;28705;45.642;13.758;2022-07-01T02:29:34;6.47;;;4.43;;
15608;SDS011;28705;45.642;13.758;2022-07-01T02:32:01;4.88;;;4.38;;
15608;SDS011;28705;45.642;13.758;2022-07-01T02:34:28;4.22;;;3.85;;
15608;SDS011;28705;45.642;13.758;2022-07-01T02:36:55;8.18;;;4.63;;
15608;SDS011;28705;45.642;13.758;2022-07-01T02:39:22;5.80;;;4.10;;
15608;SDS011;28705;45.642;13.758;2022-07-01T02:41:49;6.07;;;3.95;;
15608;SDS011;28705;45.642;13.758;2022-07-01T02:44:35;5.88;;;4.40;;
15608;SDS011;28705;45.642;13.758;2022-07-01T02:47:02;5.93;;;4.03;;
15608;SDS011;28705;45.642;13.758;2022-07-01T02:49:29;3.80;;;3.47;;
15608;SDS011;28705;45.642;13.758;2022-07-01T02:51:56;5.18;;;3.80;;
15608;SDS011;28705;45.642;13.758;2022-07-01T02:54:23;4.82;;;3.83;;
15608;SDS011;28705;45.642;13.758;2022-07-01T02:56:50;6.55;;;4.30;;
15608;SDS011;28705;45.642;13.758;2022-07-01T02:59:17;6.30;;;3.70;;
15608;SDS011;28705;45.642;13.758;2022-07-01T03:01:45;6.53;;;4.10;;
15608;SDS011;28705;45.642;13.758;2022-07-01T03:04:12;4.47;;;4.07;;
15608;SDS011;28705;45.642;13.758;2022-07-01T03:06:40;4.95;;;4.20;;
15608;SDS011;28705;45.642;13.758;2022-07-01T03:09:07;7.40;;;3.13;;
15608;SDS011;28705;45.642;13.758;2022-07-01T03:11:34;5.07;;;4.22;;
15608;SDS011;28705;45.642;13.758;2022-07-01T03:14:01;5.15;;;3.72;;
15608;SDS011;28705;45.642;13.758;2022-07-01T03:16:28;4.78;;;3.88;;
15608;SDS011;28705;45.642;13.758;2022-07-01T03:18:56;4.22;;;3.70;;
15608;SDS011;28705;45.642;13.758;2022-07-01T03:21:23;4.05;;;3.75;;
15608;SDS011;28705;45.642;13.758;2022-07-01T03:23:50;4.10;;;3.60;;
15608;SDS011;28705;45.642;13.758;2022-07-01T03:26:17;4.22;;;3.83;;
15608;SDS011;28705;45.642;13.758;2022-07-01T03:28:44;5.57;;;3.55;;
15608;SDS011;28705;45.642;13.758;2022-07-01T03:31:11;4.35;;;3.70;;
15608;SDS011;28705;45.642;13.758;2022-07-01T03:33:38;3.60;;;3.30;;
15608;SDS011;28705;45.642;13.758;2022-07-01T03:36:08;6.30;;;3.90;;
15608;SDS011;28705;45.642;13.758;2022-07-01T03:38:35;4.70;;;3.65;;
15608;SDS011;28705;45.642;13.758;2022-07-01T03:41:02;7.50;;;3.92;;
15608;SDS011;28705;45.642;13.758;2022-07-01T03:43:29;4.97;;;3.85;;
15608;SDS011;28705;45.642;13.758;2022-07-01T03:45:56;5.43;;;3.50;;
15608;SDS011;28705;45.642;13.758;2022-07-01T03:48:23;4.85;;;3.83;;
15608;SDS011;28705;45.642;13.758;2022-07-01T03:50:51;4.40;;;3.33;;
15608;SDS011;28705;45.642;13.758;2022-07-01T03:53:19;6.85;;;3.80;;
15608;SDS011;28705;45.642;13.758;2022-07-01T03:56:03;4.90;;;3.40;;
15608;SDS011;28705;45.642;13.758;2022-07-01T03:58:30;6.68;;;4.15;;
15608;SDS011;28705;45.642;13.758;2022-07-01T04:00:57;5.32;;;3.85;;
15608;SDS011;28705;45.642;13.758;2022-07-01T04:03:24;8.68;;;4.28;;
15608;SDS011;28705;45.642;13.758;2022-07-01T04:05:51;5.22;;;3.95;;
15608;SDS011;28705;45.642;13.758;2022-07-01T04:08:20;5.43;;;3.78;;
15608;SDS011;28705;45.642;13.758;2022-07-01T04:10:47;5.05;;;3.63;;
15608;SDS011;28705;45.642;13.758;2022-07-01T04:13:14;5.50;;;3.58;;
15608;SDS011;28705;45.642;13.758;2022-07-01T04:15:41;5.85;;;3.88;;
15608;SDS011;28705;45.642;13.758;2022-07-01T04:18:08;5.60;;;3.78;;
15608;SDS011;28705;45.642;13.758;2022-07-01T04:20:35;6.25;;;3.30;;
15608;SDS011;28705;45.642;13.758;2022-07-01T04:23:02;5.05;;;3.78;;
15608;SDS011;28705;45.642;13.758;2022-07-01T04:25:30;5.38;;;3.88;;
15608;SDS011;28705;45.642;13.758;2022-07-01T04:27:57;4.22;;;3.38;;
15608;SDS011;28705;45.642;13.758;2022-07-01T04:30:27;6.28;;;3.38;;
15608;SDS011;28705;45.642;13.758;2022-07-01T04:32:54;3.97;;;3.58;;
15608;SDS011;28705;45.642;13.758;2022-07-01T04:35:21;4.57;;;3.30;;
15608;SDS011;28705;45.642;13.758;2022-07-01T04:37:48;5.18;;;3.65;;
15608;SDS011;28705;45.642;13.758;2022-07-01T04:40:15;5.28;;;3.75;;
15608;SDS011;28705;45.642;13.758;2022-07-01T04:42:43;3.60;;;3.10;;
15608;SDS011;28705;45.642;13.758;2022-07-01T04:45:09;5.90;;;3.60;;
15608;SDS011;28705;45.642;13.758;2022-07-01T04:47:36;6.38;;;3.72;;
15608;SDS011;28705;45.642;13.758;2022-07-01T04:50:03;5.15;;;3.40;;
15608;SDS011;28705;45.642;13.758;2022-07-01T04:52:31;6.38;;;3.50;;
15608;SDS011;28705;45.642;13.758;2022-07-01T04:54:58;4.65;;;3.30;;
15608;SDS011;28705;45.642;13.758;2022-07-01T04:57:25;4.18;;;3.72;;
15608;SDS011;28705;45.642;13.758;2022-07-01T04:59:53;7.50;;;4.40;;
15608;SDS011;28705;45.642;13.758;2022-07-01T05:02:20;5.95;;;3.65;;
15608;SDS011;28705;45.642;13.758;2022-07-01T05:04:47;7.63;;;3.42;;
15608;SDS011;28705;45.642;13.758;2022-07-01T05:07:14;6.82;;;3.50;;
15608;SDS011;28705;45.642;13.758;2022-07-01T05:09:54;8.23;;;3.85;;
15608;SDS011;28705;45.642;13.758;2022-07-01T05:12:21;5.68;;;4.05;;
15608;SDS011;28705;45.642;13.758;2022-07-01T05:14:48;7.28;;;3.67;;
15608;SDS011;28705;45.642;13.758;2022-07-01T05:17:17;6.18;;;3.70;;
15608;SDS011;28705;45.642;13.758;2022-07-01T05:19:44;11.05;;;5.00;;
15608;SDS011;28705;45.642;13.758;2022-07-01T05:22:28;8.30;;;4.32;;
15608;SDS011;28705;45.642;13.758;2022-07-01T05:24:55;5.68;;;3.72;;
15608;SDS011;28705;45.642;13.758;2022-07-01T05:27:22;10.35;;;3.95;;
15608;SDS011;28705;45.642;13.758;2022-07-01T05:29:49;4.85;;;3.90;;
15608;SDS011;28705;45.642;13.758;2022-07-01T05:32:18;6.30;;;3.75;;
15608;SDS011;28705;45.642;13.758;2022-07-01T05:34:45;7.93;;;3.70;;
15608;SDS011;28705;45.642;13.758;2022-07-01T05:37:12;7.10;;;4.28;;
15608;SDS011;28705;45.642;13.758;2022-07-01T05:39:42;4.53;;;3.42;;
15608;SDS011;28705;45.642;13.758;2022-07-01T05:42:09;5.75;;;3.38;;
15608;SDS011;28705;45.642;13.758;2022-07-01T05:44:36;4.05;;;3.60;;
15608;SDS011;28705;45.642;13.758;2022-07-01T05:47:03;5.25;;;3.15;;
15608;SDS011;28705;45.642;13.758;2022-07-01T05:49:32;8.73;;;3.78;;
15608;SDS011;28705;45.642;13.758;2022-07-01T05:51:59;6.05;;;3.65;;
15608;SDS011;28705;45.642;13.758;2022-07-01T05:54:26;7.70;;;3.70;;
15608;SDS011;28705;45.642;13.758;2022-07-01T05:56:53;7.53;;;3.92;;
15608;SDS011;28705;45.642;13.758;2022-07-01T05:59:20;8.25;;;4.20;;
15608;SDS011;28705;45.642;13.758;2022-07-01T06:01:47;6.65;;;3.65;;
15608;SDS011;28705;45.642;13.758;2022-07-01T06:04:15;6.07;;;4.20;;
15608;SDS011;28705;45.642;13.758;2022-07-01T06:06:44;6.65;;;3.40;;
15608;SDS011;28705;45.642;13.758;2022-07-01T06:09:11;8.55;;;3.85;;
15608;SDS011;28705;45.642;13.758;2022-07-01T06:11:38;6.82;;;3.53;;
15608;SDS011;28705;45.642;13.758;2022-07-01T06:14:05;6.13;;;3.40;;
15608;SDS011;28705;45.642;13.758;2022-07-01T06:16:32;6.25;;;3.22;;
15608;SDS011;28705;45.642;13.758;2022-07-01T06:18:59;5.55;;;3.50;;
15608;SDS011;28705;45.642;13.758;2022-07-01T06:21:26;5.82;;;3.67;;
15608;SDS011;28705;45.642;13.758;2022-07-01T06:23:55;8.93;;;4.10;;
15608;SDS011;28705;45.642;13.758;2022-07-01T06:26:22;5.38;;;3.15;;
15608;SDS011;28705;45.642;13.758;2022-07-01T06:28:49;6.95;;;3.80;;
15608;SDS011;28705;45.642;13.758;2022-07-01T06:31:16;3.47;;;2.90;;
15608;SDS011;28705;45.642;13.758;2022-07-01T06:33:43;4.95;;;3.08;;
15608;SDS011;28705;45.642;13.758;2022-07-01T06:36:10;4.22;;;3.10;;
15608;SDS011;28705;45.642;13.758;2022-07-01T06:38:39;4.68;;;3.25;;
15608;SDS011;28705;45.642;13.758;2022-07-01T06:41:07;5.88;;;3.85;;
15608;SDS011;28705;45.642;13.758;2022-07-01T06:43:53;5.90;;;3.50;;
15608;SDS011;28705;45.642;13.758;2022-07-01T06:46:20;3.97;;;2.67;;
15608;SDS011;28705;45.642;13.758;2022-07-01T06:48:47;5.90;;;3.58;;
15608;SDS011;28705;45.642;13.758;2022-07-01T06:51:14;4.95;;;2.83;;
15608;SDS011;28705;45.642;13.758;2022-07-01T06:53:42;7.55;;;3.60;;
15608;SDS011;28705;45.642;13.758;2022-07-01T06:56:11;6.85;;;2.80;;
15608;SDS011;28705;45.642;13.758;2022-07-01T06:58:38;3.95;;;2.75;;
15608;SDS011;28705;45.642;13.758;2022-07-01T07:01:05;4.80;;;2.42;;
15608;SDS011;28705;45.642;13.758;2022-07-01T07:03:32;5.85;;;2.60;;
15608;SDS011;28705;45.642;13.758;2022-07-01T07:05:59;7.00;;;3.22;;
15608;SDS011;28705;45.642;13.758;2022-07-01T07:08:27;4.70;;;2.70;;
15608;SDS011;28705;45.642;13.758;2022-07-01T07:10:54;5.85;;;2.72;;
15608;SDS011;28705;45.642;13.758;2022-07-01T07:13:23;7.72;;;3.05;;
15608;SDS011;28705;45.642;13.758;2022-07-01T07:15:50;5.90;;;2.80;;
15608;SDS011;28705;45.642;13.758;2022-07-01T07:18:17;5.68;;;2.50;;
15608;SDS011;28705;45.642;13.758;2022-07-01T07:20:44;5.35;;;2.60;;
15608;SDS011;28705;45.642;13.758;2022-07-01T07:23:12;8.88;;;2.85;;
15608;SDS011;28705;45.642;13.758;2022-07-01T07:25:39;3.65;;;2.63;;
15608;SDS011;28705;45.642;13.758;2022-07-01T07:28:07;6.28;;;2.20;;
15608;SDS011;28705;45.642;13.758;2022-07-01T07:30:35;5.40;;;2.83;;
15608;SDS011;28705;45.642;13.758;2022-07-01T07:33:02;4.68;;;2.95;;
15608;SDS011;28705;45.642;13.758;2022-07-01T07:35:30;4.32;;;2.55;;
15608;SDS011;28705;45.642;13.758;2022-07-01T07:37:57;4.82;;;3.20;;
15608;SDS011;28705;45.642;13.758;2022-07-01T07:40:24;6.28;;;2.80;;
15608;SDS011;28705;45.642;13.758;2022-07-01T07:42:51;8.68;;;3.40;;
15608;SDS011;28705;45.642;13.758;2022-07-01T07:45:18;7.78;;;3.67;;
15608;SDS011;28705;45.642;13.758;2022-07-01T07:47:46;6.22;;;3.38;;
15608;SDS011;28705;45.642;13.758;2022-07-01T07:50:15;5.88;;;3.15;;
15608;SDS011;28705;45.642;13.758;2022-07-01T07:52:42;6.30;;;3.40;;
15608;SDS011;28705;45.642;13.758;2022-07-01T07:55:09;5.20;;;3.05;;
15608;SDS011;28705;45.642;13.758;2022-07-01T07:57:37;5.63;;;3.13;;
15608;SDS011;28705;45.642;13.758;2022-07-01T08:00:05;8.93;;;2.92;;
15608;SDS011;28705;45.642;13.758;2022-07-01T08:02:33;6.57;;;3.10;;
15608;SDS011;28705;45.642;13.758;2022-07-01T08:05:02;6.38;;;3.55;;
15608;SDS011;28705;45.642;13.758;2022-07-01T08:07:30;3.70;;;3.08;;
15608;SDS011;28705;45.642;13.758;2022-07-01T08:10:00;6.93;;;3.45;;
15608;SDS011;28705;45.642;13.758;2022-07-01T08:12:27;8.15;;;3.13;;
15608;SDS011;28705;45.642;13.758;2022-07-01T08:14:54;8.35;;;3.40;;
15608;SDS011;28705;45.642;13.758;2022-07-01T08:17:21;7.05;;;3.25;;
15608;SDS011;28705;45.642;13.758;2022-07-01T08:19:48;5.35;;;3.10;;
15608;SDS011;28705;45.642;13.758;2022-07-01T08:22:17;6.75;;;3.28;;
15608;SDS011;28705;45.642;13.758;2022-07-01T08:24:44;6.60;;;3.38;;
15608;SDS011;28705;45.642;13.758;2022-07-01T08:27:11;5.32;;;2.78;;
15608;SDS011;28705;45.642;13.758;2022-07-01T08:29:38;5.32;;;2.83;;
15608;SDS011;28705;45.642;13.758;2022-07-01T08:32:06;7.30;;;3.45;;
15608;SDS011;28705;45.642;13.758;2022-07-01T08:34:33;9.63;;;3.58;;
15608;SDS011;28705;45.642;13.758;2022-07-01T08:37:01;7.63;;;3.67;;
15608;SDS011;28705;45.642;13.758;2022-07-01T08:39:30;7.03;;;3.50;;
15608;SDS011;28705;45.642;13.758;2022-07-01T08:41:58;5.90;;;3.17;;
15608;SDS011;28705;45.642;13.758;2022-07-01T08:44:25;8.38;;;3.70;;
15608;SDS011;28705;45.642;13.758;2022-07-01T08:46:52;8.27;;;3.58;;
15608;SDS011;28705;45.642;13.758;2022-07-01T08:49:19;5.70;;;3.85;;
15608;SDS011;28705;45.642;13.758;2022-07-01T08:51:48;5.95;;;3.38;;
15608;SDS011;28705;45.642;13.758;2022-07-01T08:54:15;8.23;;;4.00;;
15608;SDS011;28705;45.642;13.758;2022-07-01T08:56:43;8.88;;;3.67;;
15608;SDS011;28705;45.642;13.758;2022-07-01T08:59:12;6.20;;;3.55;;
15608;SDS011;28705;45.642;13.758;2022-07-01T09:01:53;8.10;;;4.20;;
15608;SDS011;28705;45.642;13.758;2022-07-01T09:04:21;6.47;;;4.20;;
15608;SDS011;28705;45.642;13.758;2022-07-01T09:06:48;6.38;;;4.07;;
15608;SDS011;28705;45.642;13.758;2022-07-01T09:09:17;5.07;;;3.75;;
15608;SDS011;28705;45.642;13.758;2022-07-01T09:11:47;6.55;;;4.60;;
15608;SDS011;28705;45.642;13.758;2022-07-01T09:14:20;6.45;;;4.10;;
15608;SDS011;28705;45.642;13.758;2022-07-01T09:16:48;7.40;;;4.80;;
15608;SDS011;28705;45.642;13.758;2022-07-01T09:19:16;7.00;;;4.30;;
15608;SDS011;28705;45.642;13.758;2022-07-01T09:21:47;9.40;;;3.95;;
15608;SDS011;28705;45.642;13.758;2022-07-01T09:24:22;5.82;;;4.07;;
15608;SDS011;28705;45.642;13.758;2022-07-01T09:26:54;5.63;;;4.43;;
15608;SDS011;28705;45.642;13.758;2022-07-01T09:29:25;8.88;;;4.50;;
15608;SDS011;28705;45.642;13.758;2022-07-01T09:31:54;6.95;;;4.82;;
15608;SDS011;28705;45.642;13.758;2022-07-01T09:34:21;7.53;;;3.88;;
15608;SDS011;28705;45.642;13.758;2022-07-01T09:36:51;7.75;;;4.22;;
15608;SDS011;28705;45.642;13.758;2022-07-01T09:39:19;7.30;;;4.28;;
15608;SDS011;28705;45.642;13.758;2022-07-01T09:41:46;8.82;;;4.13;;
15608;SDS011;28705;45.642;13.758;2022-07-01T09:44:15;7.75;;;4.28;;
15608;SDS011;28705;45.642;13.758;2022-07-01T09:46:52;6.40;;;3.70;;
15608;SDS011;28705;45.642;13.758;2022-07-01T09:49:20;9.85;;;3.88;;
15608;SDS011;28705;45.642;13.758;2022-07-01T09:51:47;10.23;;;4.03;;
15608;SDS011;28705;45.642;13.758;2022-07-01T09:54:15;12.70;;;5.22;;
15608;SDS011;28705;45.642;13.758;2022-07-01T09:56:43;14.93;;;7.05;;
15608;SDS011;28705;45.642;13.758;2022-07-01T09:59:11;11.60;;;4.55;;
15608;SDS011;28705;45.642;13.758;2022-07-01T10:01:39;12.35;;;4.90;;
15608;SDS011;28705;45.642;13.758;2022-07-01T10:04:07;7.93;;;4.03;;
15608;SDS011;28705;45.642;13.758;2022-07-01T10:09:48;8.90;;;4.25;;
15608;SDS011;28705;45.642;13.758;2022-07-01T10:12:34;13.60;;;5.30;;
15608;SDS011;28705;45.642;13.758;2022-07-01T10:15:05;15.48;;;5.68;;
15608;SDS011;28705;45.642;13.758;2022-07-01T10:17:36;16.17;;;6.63;;
15608;SDS011;28705;45.642;13.758;2022-07-01T10:20:08;11.90;;;5.60;;
15608;SDS011;28705;45.642;13.758;2022-07-01T10:22:38;9.95;;;5.75;;
15608;SDS011;28705;45.642;13.758;2022-07-01T10:28:12;8.30;;;5.15;;
15608;SDS011;28705;45.642;13.758;2022-07-01T10:30:48;13.15;;;5.30;;
15608;SDS011;28705;45.642;13.758;2022-07-01T10:33:31;15.40;;;5.30;;
15608;SDS011;28705;45.642;13.758;2022-07-01T10:36:06;12.90;;;5.70;;
15608;SDS011;28705;45.642;13.758;2022-07-01T10:38:35;9.55;;;4.85;;
15608;SDS011;28705;45.642;13.758;2022-07-01T10:41:22;8.80;;;5.03;;
15608;SDS011;28705;45.642;13.758;2022-07-01T10:43:49;10.40;;;4.72;;
15608;SDS011;28705;45.642;13.758;2022-07-01T10:49:07;9.50;;;4.90;;
15608;SDS011;28705;45.642;13.758;2022-07-01T10:51:47;14.10;;;5.70;;
15608;SDS011;28705;45.642;13.758;2022-07-01T10:57:28;9.85;;;5.35;;
15608;SDS011;28705;45.642;13.758;2022-07-01T11:03:06;7.95;;;4.75;;
15608;SDS011;28705;45.642;13.758;2022-07-01T11:05:42;8.32;;;4.80;;
15608;SDS011;28705;45.642;13.758;2022-07-01T11:08:10;10.93;;;4.85;;
15608;SDS011;28705;45.642;13.758;2022-07-01T11:10:38;9.55;;;5.50;;
15608;SDS011;28705;45.642;13.758;2022-07-01T11:13:06;9.52;;;5.60;;
15608;SDS011;28705;45.642;13.758;2022-07-01T11:15:33;5.22;;;4.57;;
15608;SDS011;28705;45.642;13.758;2022-07-01T11:18:01;7.05;;;4.78;;
15608;SDS011;28705;45.642;13.758;2022-07-01T11:20:31;8.73;;;4.53;;
15608;SDS011;28705;45.642;13.758;2022-07-01T11:23:00;8.32;;;4.60;;
15608;SDS011;28705;45.642;13.758;2022-07-01T11:25:27;8.90;;;5.05;;
15608;SDS011;28705;45.642;13.758;2022-07-01T11:27:55;5.82;;;5.05;;
15608;SDS011;28705;45.642;13.758;2022-07-01T11:30:23;8.20;;;5.03;;
15608;SDS011;28705;45.642;13.758;2022-07-01T11:32:51;11.35;;;5.15;;
15608;SDS011;28705;45.642;13.758;2022-07-01T11:35:20;9.43;;;5.43;;
15608;SDS011;28705;45.642;13.758;2022-07-01T11:38:08;9.18;;;5.03;;
15608;SDS011;28705;45.642;13.758;2022-07-01T11:40:54;7.25;;;5.00;;
15608;SDS011;28705;45.642;13.758;2022-07-01T11:43:22;7.95;;;5.65;;
15608;SDS011;28705;45.642;13.758;2022-07-01T11:45:51;8.75;;;5.40;;
15608;SDS011;28705;45.642;13.758;2022-07-01T11:48:28;6.93;;;4.70;;
15608;SDS011;28705;45.642;13.758;2022-07-01T11:51:00;8.77;;;5.15;;
15608;SDS011;28705;45.642;13.758;2022-07-01T11:53:35;11.38;;;5.97;;
15608;SDS011;28705;45.642;13.758;2022-07-01T11:56:04;10.27;;;6.45;;
15608;SDS011;28705;45.642;13.758;2022-07-01T11:58:42;9.18;;;5.25;;
15608;SDS011;28705;45.642;13.758;2022-07-01T12:01:10;11.57;;;6.30;;
15608;SDS011;28705;45.642;13.758;2022-07-01T12:03:45;10.38;;;6.70;;
15608;SDS011;28705;45.642;13.758;2022-07-01T12:06:12;9.45;;;5.80;;
15608;SDS011;28705;45.642;13.758;2022-07-01T12:08:41;9.90;;;6.03;;
15608;SDS011;28705;45.642;13.758;2022-07-01T12:11:09;16.70;;;7.10;;
15608;SDS011;28705;45.642;13.758;2022-07-01T12:13:36;12.02;;;6.72;;
15608;SDS011;28705;45.642;13.758;2022-07-01T12:16:07;12.45;;;6.75;;
15608;SDS011;28705;45.642;13.758;2022-07-01T12:18:35;10.70;;;6.35;;
15608;SDS011;28705;45.642;13.758;2022-07-01T12:21:03;11.63;;;6.15;;
15608;SDS011;28705;45.642;13.758;2022-07-01T12:23:30;11.10;;;6.80;;
15608;SDS011;28705;45.642;13.758;2022-07-01T12:26:03;11.98;;;7.18;;
15608;SDS011;28705;45.642;13.758;2022-07-01T12:28:32;11.60;;;6.90;;
15608;SDS011;28705;45.642;13.758;2022-07-01T12:31:04;10.73;;;6.75;;
15608;SDS011;28705;45.642;13.758;2022-07-01T12:33:33;9.23;;;6.75;;
15608;SDS011;28705;45.642;13.758;2022-07-01T12:36:03;9.13;;;6.40;;
15608;SDS011;28705;45.642;13.758;2022-07-01T12:38:31;9.93;;;7.05;;
15608;SDS011;28705;45.642;13.758;2022-07-01T12:40:59;14.90;;;7.65;;
15608;SDS011;28705;45.642;13.758;2022-07-01T12:43:28;12.30;;;7.35;;
15608;SDS011;28705;45.642;13.758;2022-07-01T12:45:58;14.30;;;6.78;;
15608;SDS011;28705;45.642;13.758;2022-07-01T12:48:26;15.55;;;8.52;;
15608;SDS011;28705;45.642;13.758;2022-07-01T12:50:53;14.70;;;7.97;;
15608;SDS011;28705;45.642;13.758;2022-07-01T12:53:22;14.57;;;7.63;;
15608;SDS011;28705;45.642;13.758;2022-07-01T12:55:51;14.75;;;7.82;;
15608;SDS011;28705;45.642;13.758;2022-07-01T12:58:20;14.88;;;8.32;;
15608;SDS011;28705;45.642;13.758;2022-07-01T13:00:50;18.35;;;7.40;;
15608;SDS011;28705;45.642;13.758;2022-07-01T13:03:20;12.95;;;7.55;;
15608;SDS011;28705;45.642;13.758;2022-07-01T13:05:49;15.65;;;7.40;;
15608;SDS011;28705;45.642;13.758;2022-07-01T13:08:16;12.77;;;8.05;;
15608;SDS011;28705;45.642;13.758;2022-07-01T13:10:44;11.30;;;8.38;;
15608;SDS011;28705;45.642;13.758;2022-07-01T13:13:12;14.57;;;7.97;;
15608;SDS011;28705;45.642;13.758;2022-07-01T13:15:40;13.63;;;8.25;;
15608;SDS011;28705;45.642;13.758;2022-07-01T13:18:09;12.65;;;7.50;;
15608;SDS011;28705;45.642;13.758;2022-07-01T13:20:36;13.88;;;8.48;;
15608;SDS011;28705;45.642;13.758;2022-07-01T13:23:05;16.25;;;8.05;;
15608;SDS011;28705;45.642;13.758;2022-07-01T13:25:32;12.40;;;7.40;;
15608;SDS011;28705;45.642;13.758;2022-07-01T13:27:59;10.93;;;7.65;;
15608;SDS011;28705;45.642;13.758;2022-07-01T13:30:26;14.13;;;7.30;;
15608;SDS011;28705;45.642;13.758;2022-07-01T13:32:53;17.02;;;7.75;;
15608;SDS011;28705;45.642;13.758;2022-07-01T13:35:22;18.05;;;7.38;;
15608;SDS011;28705;45.642;13.758;2022-07-01T13:37:51;15.52;;;7.25;;
15608;SDS011;28705;45.642;13.758;2022-07-01T13:40:19;14.45;;;8.63;;
15608;SDS011;28705;45.642;13.758;2022-07-01T13:42:46;16.23;;;7.72;;
15608;SDS011;28705;45.642;13.758;2022-07-01T13:45:14;10.30;;;7.32;;
15608;SDS011;28705;45.642;13.758;2022-07-01T13:47:41;13.70;;;7.32;;
15608;SDS011;28705;45.642;13.758;2022-07-01T13:50:08;11.20;;;7.22;;
15608;SDS011;28705;45.642;13.758;2022-07-01T13:52:39;11.52;;;7.47;;
15608;SDS011;28705;45.642;13.758;2022-07-01T13:55:06;14.50;;;7.18;;
15608;SDS011;28705;45.642;13.758;2022-07-01T13:57:33;15.40;;;7.28;;
15608;SDS011;28705;45.642;13.758;2022-07-01T14:00:00;10.82;;;6.45;;
15608;SDS011;28705;45.642;13.758;2022-07-01T14:02:29;12.88;;;7.75;;
15608;SDS011;28705;45.642;13.758;2022-07-01T14:04:57;15.77;;;7.45;;
15608;SDS011;28705;45.642;13.758;2022-07-01T14:07:24;10.82;;;6.95;;
15608;SDS011;28705;45.642;13.758;2022-07-01T14:09:52;11.25;;;6.85;;
15608;SDS011;28705;45.642;13.758;2022-07-01T14:12:20;12.25;;;6.70;;
15608;SDS011;28705;45.642;13.758;2022-07-01T14:14:48;10.35;;;7.25;;
15608;SDS011;28705;45.642;13.758;2022-07-01T14:17:16;13.48;;;7.32;;
15608;SDS011;28705;45.642;13.758;2022-07-01T14:19:44;12.20;;;6.63;;
15608;SDS011;28705;45.642;13.758;2022-07-01T14:22:12;10.25;;;6.50;;
15608;SDS011;28705;45.642;13.758;2022-07-01T14:24:39;13.07;;;6.88;;
15608;SDS011;28705;45.642;13.758;2022-07-01T14:27:08;14.77;;;6.90;;
15608;SDS011;28705;45.642;13.758;2022-07-01T14:29:35;15.35;;;6.90;;
15608;SDS011;28705;45.642;13.758;2022-07-01T14:32:02;15.73;;;6.95;;
15608;SDS011;28705;45.642;13.758;2022-07-01T14:34:30;16.58;;;7.40;;
15608;SDS011;28705;45.642;13.758;2022-07-01T14:36:57;15.07;;;8.07;;
15608;SDS011;28705;45.642;13.758;2022-07-01T14:39:25;13.65;;;7.07;;
15608;SDS011;28705;45.642;13.758;2022-07-01T14:41:54;16.00;;;7.45;;
15608;SDS011;28705;45.642;13.758;2022-07-01T14:44:23;16.02;;;7.38;;
15608;SDS011;28705;45.642;13.758;2022-07-01T14:46:50;14.43;;;6.90;;
15608;SDS011;28705;45.642;13.758;2022-07-01T14:49:19;15.45;;;6.90;;
15608;SDS011;28705;45.642;13.758;2022-07-01T14:51:46;14.27;;;8.02;;
15608;SDS011;28705;45.642;13.758;2022-07-01T14:54:15;12.25;;;7.32;;